Time;durP1;ratioP1;P1;durP2;ratioP2;P2;SDS_P1;SDS_P2;PMS_P1;PMS_P2;Temp;Humidity;BMP_temperature;BMP_pressure;BME280_temperature;BME280_humidity;BME280_pressure;Samples;Min_cycle;Max_cycle;Signal;HPM_P1;HPM_P2
2023/03/27 00:00:57;;;;;;;4.50;1.85;;;9.20;99.90;;;;;;5048294;28;20216;-75
2023/03/27 00:03:24;;;;;;;5.55;1.98;;;9.10;99.90;;;;;;5047630;28;20029;-74
2023/03/27 00:06:18;;;;;;;4.53;1.50;;;9.10;99.90;;;;;;5048273;28;20040;-75
2023/03/27 00:08:46;;;;;;;6.63;2.08;;;9.00;99.90;;;;;;5043867;28;20501;-76
2023/03/27 00:11:13;;;;;;;9.25;1.70;;;9.00;99.90;;;;;;5046905;28;20196;-75
2023/03/27 00:13:39;;;;;;;5.40;1.83;;;9.00;99.90;;;;;;5048053;28;20060;-74
2023/03/27 00:16:05;;;;;;;;;;;9.00;99.90;;;;;;5048618;28;20043;-76
2023/03/27 00:18:32;;;;;;;7.85;2.17;;;9.00;99.90;;;;;;5047952;28;20413;-75
2023/03/27 00:20:59;;;;;;;6.25;1.90;;;8.90;99.90;;;;;;5046737;28;20025;-75
2023/03/27 00:23:28;;;;;;;6.95;2.30;;;8.90;99.90;;;;;;5048079;28;20102;-75
2023/03/27 00:25:56;;;;;;;8.23;3.78;;;8.90;99.90;;;;;;5048121;28;20025;-75
2023/03/27 00:28:25;;;;;;;5.05;2.08;;;8.90;99.90;;;;;;5048307;28;20807;-76
2023/03/27 00:30:54;;;;;;;6.13;1.83;;;8.80;99.90;;;;;;5048185;28;20049;-75
2023/03/27 00:33:20;;;;;;;4.68;2.00;;;8.80;99.90;;;;;;5047890;28;20053;-76
2023/03/27 00:35:47;;;;;;;5.78;3.10;;;8.80;99.90;;;;;;5047935;28;20389;-76
2023/03/27 00:38:15;;;;;;;9.02;3.65;;;8.80;99.90;;;;;;5047897;28;20489;-75
2023/03/27 00:40:42;;;;;;;6.15;2.60;;;8.80;99.90;;;;;;5046658;28;20102;-76
2023/03/27 00:43:27;;;;;;;8.38;2.22;;;8.80;99.90;;;;;;5047890;28;20040;-75
2023/03/27 00:46:00;;;;;;;10.40;2.90;;;8.80;99.90;;;;;;5047947;28;20029;-75
2023/03/27 00:48:27;;;;;;;4.45;2.00;;;8.80;99.90;;;;;;5047712;28;20078;-75
2023/03/27 00:50:55;;;;;;;7.22;2.60;;;8.70;99.90;;;;;;5047770;28;20497;-75
2023/03/27 00:53:25;;;;;;;6.30;2.33;;;8.70;99.90;;;;;;5046489;28;20078;-76
2023/03/27 00:55:53;;;;;;;6.85;2.58;;;8.70;99.90;;;;;;5047853;28;20408;-75
2023/03/27 00:58:36;;;;;;;5.35;2.90;;;8.70;99.90;;;;;;5047682;28;20374;-75
2023/03/27 01:01:02;;;;;;;5.65;2.50;;;8.70;99.90;;;;;;5047842;28;20028;-76
2023/03/27 01:03:31;;;;;;;;;;;8.70;99.90;;;;;;5048048;28;20025;-76
2023/03/27 01:06:00;;;;;;;4.55;2.38;;;8.60;99.90;;;;;;5047719;28;19909;-76
2023/03/27 01:08:30;;;;;;;5.55;2.50;;;8.60;99.90;;;;;;5047714;28;20028;-76
2023/03/27 01:11:21;;;;;;;9.80;3.38;;;8.60;99.90;;;;;;5047568;28;20064;-74
2023/03/27 01:14:14;;;;;;;10.02;4.35;;;8.60;99.90;;;;;;5048393;28;20033;-74
2023/03/27 01:16:58;;;;;;;9.70;4.60;;;8.60;99.90;;;;;;5051039;28;20025;-76
2023/03/27 01:19:40;;;;;;;11.18;3.55;;;8.50;99.90;;;;;;5051099;28;20120;-75
2023/03/27 01:22:40;;;;;;;11.88;4.07;;;8.50;99.90;;;;;;5051116;28;20536;-75
2023/03/27 01:25:21;;;;;;;11.50;4.13;;;8.50;99.90;;;;;;5051091;28;20699;-75
2023/03/27 01:28:35;;;;;;;7.85;3.25;;;8.50;99.90;;;;;;5050976;28;20067;-76
2023/03/27 01:31:32;;;;;;;6.88;2.88;;;8.50;99.90;;;;;;5050123;28;20584;-76
2023/03/27 01:34:09;;;;;;;6.88;3.10;;;8.40;99.90;;;;;;5049467;28;20701;-77
2023/03/27 01:37:10;;;;;;;5.65;2.97;;;8.40;99.90;;;;;;5050772;28;20024;-76
2023/03/27 01:40:06;;;;;;;7.80;3.17;;;8.40;99.90;;;;;;5050638;28;20040;-76
2023/03/27 01:42:44;;;;;;;7.95;2.90;;;8.40;99.90;;;;;;5049742;28;20112;-76
2023/03/27 01:45:29;;;;;;;14.05;3.08;;;8.40;99.90;;;;;;5050786;28;20661;-76
2023/03/27 01:48:22;;;;;;;7.90;3.15;;;8.40;99.90;;;;;;5049450;28;20119;-76
2023/03/27 01:50:55;;;;;;;7.30;3.13;;;8.40;99.90;;;;;;5050602;28;20554;-76
2023/03/27 01:53:36;;;;;;;9.13;3.63;;;8.40;99.90;;;;;;5050314;28;20033;-76
2023/03/27 01:56:25;;;;;;;7.35;3.08;;;8.40;99.90;;;;;;5049590;28;20036;-76
2023/03/27 01:59:03;;;;;;;10.85;3.67;;;8.40;99.90;;;;;;5049756;28;20045;-76
2023/03/27 02:01:38;;;;;;;6.40;3.22;;;8.30;99.90;;;;;;5050424;28;20052;-76
2023/03/27 02:04:09;;;;;;;11.57;3.90;;;8.30;99.90;;;;;;5050459;28;20082;-75
2023/03/27 02:06:42;;;;;;;6.97;3.25;;;8.30;99.90;;;;;;5050768;28;20032;-76
2023/03/27 02:09:22;;;;;;;10.70;3.58;;;8.30;99.90;;;;;;5050389;28;20021;-75
2023/03/27 02:12:00;;;;;;;8.35;3.33;;;8.30;99.90;;;;;;5050196;28;20033;-77
2023/03/27 02:14:31;;;;;;;7.45;3.45;;;8.30;99.90;;;;;;5050165;28;20055;-77
2023/03/27 02:17:00;;;;;;;14.82;3.55;;;8.20;99.90;;;;;;5050237;28;20520;-76
2023/03/27 02:19:34;;;;;;;10.38;4.03;;;8.30;99.90;;;;;;5048738;28;20072;-76
2023/03/27 02:22:01;;;;;;;7.78;3.72;;;8.30;99.90;;;;;;5050049;28;20514;-76
2023/03/27 02:24:27;;;;;;;7.40;3.50;;;8.20;99.90;;;;;;5050087;28;20084;-76
2023/03/27 02:27:00;;;;;;;7.55;3.35;;;8.30;99.90;;;;;;5049180;28;20056;-76
2023/03/27 02:29:45;;;;;;;10.40;3.67;;;8.40;99.90;;;;;;5049845;28;20029;-76
2023/03/27 02:32:22;;;;;;;5.93;3.15;;;8.40;99.90;;;;;;5049736;28;20099;-76
2023/03/27 02:34:57;;;;;;;5.75;2.95;;;8.40;99.90;;;;;;5049771;28;20064;-76
2023/03/27 02:37:41;;;;;;;7.72;3.08;;;8.40;99.90;;;;;;5049573;28;20036;-76
2023/03/27 02:40:13;;;;;;;5.50;3.40;;;8.30;99.90;;;;;;5049673;28;20060;-76
2023/03/27 02:43:08;;;;;;;8.05;2.67;;;8.20;99.90;;;;;;5049873;28;20052;-76
2023/03/27 02:45:40;;;;;;;6.75;3.50;;;8.10;99.90;;;;;;5049383;28;20025;-76
2023/03/27 02:48:46;;;;;;;7.93;3.83;;;8.10;99.90;;;;;;5049555;28;20081;-76
2023/03/27 02:51:21;;;;;;;8.35;3.80;;;8.10;99.90;;;;;;5048397;28;20052;-76
2023/03/27 02:53:56;;;;;;;10.07;3.83;;;8.20;99.90;;;;;;5049282;28;20523;-76
2023/03/27 02:56:26;;;;;;;7.57;3.67;;;8.20;99.90;;;;;;5049419;28;20033;-76
2023/03/27 02:59:15;;;;;;;7.53;4.20;;;8.20;99.90;;;;;;5049336;28;20116;-77
2023/03/27 03:01:44;;;;;;;8.13;3.40;;;8.20;99.90;;;;;;5047511;28;20041;-76
2023/03/27 03:04:27;;;;;;;9.35;4.03;;;8.30;99.90;;;;;;5049294;28;20029;-76
2023/03/27 03:06:53;;;;;;;5.28;3.15;;;8.30;99.90;;;;;;5047732;28;20033;-76
2023/03/27 03:09:19;;;;;;;10.07;4.28;;;8.30;99.90;;;;;;5049000;28;20489;-77
2023/03/27 03:11:47;;;;;;;;;;;8.20;99.90;;;;;;5048454;28;20040;-76
2023/03/27 03:14:13;;;;;;;9.45;4.20;;;8.20;99.90;;;;;;5049170;28;19908;-76
2023/03/27 03:16:38;;;;;;;;;;;8.20;99.90;;;;;;5049386;28;20393;-75
2023/03/27 03:19:04;;;;;;;7.80;3.70;;;8.30;99.90;;;;;;5049009;28;19913;-76
2023/03/27 03:21:30;;;;;;;;;;;8.30;99.90;;;;;;5049142;28;20060;-76
2023/03/27 03:23:56;;;;;;;9.20;4.70;;;8.40;99.90;;;;;;5049020;28;19913;-75
2023/03/27 03:26:22;;;;;;;;;;;8.40;99.90;;;;;;5049833;28;20028;-75
2023/03/27 03:28:48;;;;;;;6.95;3.55;;;8.40;99.90;;;;;;5048875;28;20407;-76
2023/03/27 03:31:14;;;;;;;;;;;8.40;99.90;;;;;;5049193;28;20052;-75
2023/03/27 03:33:40;;;;;;;7.13;3.78;;;8.40;99.90;;;;;;5048646;28;20008;-76
2023/03/27 03:36:06;;;;;;;;;;;8.40;99.90;;;;;;5047518;28;20520;-75
2023/03/27 03:38:34;;;;;;;4.05;2.42;;;8.30;99.90;;;;;;5048127;28;19979;-75
2023/03/27 03:41:00;;;;;;;4.85;2.08;;;8.40;99.90;;;;;;5047609;28;20556;-76
2023/03/27 03:43:29;;;;;;;4.05;1.80;;;8.40;99.90;;;;;;5047052;28;20033;-76
2023/03/27 03:45:54;;;;;;;3.35;1.85;;;8.40;99.90;;;;;;5048525;28;20028;-76
2023/03/27 03:48:21;;;;;;;;;;;8.50;99.90;;;;;;5049016;28;20029;-76
2023/03/27 03:50:48;;;;;;;2.90;1.38;;;8.50;99.90;;;;;;5048639;28;20452;-76
2023/03/27 03:53:19;;;;;;;4.40;2.10;;;8.40;99.90;;;;;;5048185;28;20067;-75
2023/03/27 03:55:45;;;;;;;3.88;2.00;;;8.40;99.90;;;;;;5047086;28;20625;-76
2023/03/27 03:58:11;;;;;;;4.93;2.33;;;8.50;99.90;;;;;;5047242;28;20064;-76
2023/03/27 04:00:37;;;;;;;;;;;8.40;99.90;;;;;;5048794;28;20052;-76
2023/03/27 04:03:06;;;;;;;3.40;1.37;;;8.40;99.90;;;;;;5048324;28;20491;-75
2023/03/27 04:05:32;;;;;;;3.63;1.75;;;8.40;99.90;;;;;;5048074;28;20036;-76
2023/03/27 04:07:58;;;;;;;6.72;1.58;;;8.40;99.90;;;;;;5046876;28;20029;-76
2023/03/27 04:10:27;;;;;;;;;;;8.40;99.90;;;;;;5048756;28;20040;-76
2023/03/27 04:12:54;;;;;;;4.13;0.75;;;8.40;99.90;;;;;;5048079;28;19940;-76
2023/03/27 04:15:20;;;;;;;4.28;0.80;;;8.40;99.90;;;;;;5047998;28;20039;-77
2023/03/27 04:17:47;;;;;;;3.05;1.58;;;8.40;99.90;;;;;;5046884;28;20063;-77
2023/03/27 04:20:14;;;;;;;1.35;0.70;;;8.40;99.90;;;;;;5047298;28;20039;-75
2023/03/27 04:22:47;;;;;;;3.92;0.90;;;8.40;99.90;;;;;;5047963;28;20067;-75
2023/03/27 04:25:16;;;;;;;3.80;0.93;;;8.50;99.90;;;;;;5048072;28;20463;-75
2023/03/27 04:27:43;;;;;;;2.97;1.20;;;8.50;99.90;;;;;;5046725;28;20041;-76
2023/03/27 04:30:14;;;;;;;4.00;1.30;;;8.50;99.90;;;;;;5048216;28;20379;-75
2023/03/27 04:32:40;;;;;;;4.60;1.50;;;8.50;99.90;;;;;;5047802;28;20099;-75
2023/03/27 04:35:06;;;;;;;;;;;8.50;99.90;;;;;;5048579;28;20037;-77
2023/03/27 04:37:32;;;;;;;3.47;1.30;;;8.40;99.90;;;;;;5047812;28;19905;-77
2023/03/27 04:39:59;;;;;;;;;;;8.40;99.90;;;;;;5048656;28;20094;-77
2023/03/27 04:42:25;;;;;;;5.55;1.33;;;8.40;99.90;;;;;;5048518;28;20438;-77
2023/03/27 04:44:51;;;;;;;3.17;1.08;;;8.40;99.90;;;;;;5048414;28;20466;-76
2023/03/27 04:47:17;;;;;;;;;;;8.40;99.90;;;;;;5047989;28;20480;-76
2023/03/27 04:49:45;;;;;;;4.10;1.42;;;8.40;99.90;;;;;;5050332;28;20395;-76
2023/03/27 04:52:13;;;;;;;6.75;2.00;;;8.40;99.90;;;;;;5051862;28;20056;-76
2023/03/27 04:54:40;;;;;;;10.73;2.33;;;8.40;99.90;;;;;;5051612;28;20021;-76
2023/03/27 04:57:07;;;;;;;4.63;1.40;;;8.40;99.90;;;;;;5050176;28;20032;-76
2023/03/27 04:59:33;;;;;;;1.98;0.85;;;8.30;99.90;;;;;;5051596;28;20106;-77
2023/03/27 05:02:00;;;;;;;;;;;8.40;99.90;;;;;;5050478;28;20037;-76
2023/03/27 05:04:26;;;;;;;2.80;1.00;;;8.30;99.90;;;;;;5051200;28;19963;-76
2023/03/27 05:06:54;;;;;;;2.67;0.90;;;8.30;99.90;;;;;;5051309;28;20082;-77
2023/03/27 05:09:20;;;;;;;2.88;0.70;;;8.40;99.90;;;;;;5049558;28;20090;-76
2023/03/27 05:11:48;;;;;;;;;;;8.40;99.90;;;;;;5051937;28;20036;-76
2023/03/27 05:14:18;;;;;;;1.23;0.75;;;8.40;99.90;;;;;;5051398;28;20015;-77
2023/03/27 05:16:44;;;;;;;2.17;0.65;;;8.40;99.90;;;;;;5051257;28;20048;-77
2023/03/27 05:19:10;;;;;;;;;;;8.40;99.90;;;;;;5051275;28;20098;-76
2023/03/27 05:21:37;;;;;;;1.92;0.50;;;8.40;99.90;;;;;;5051039;28;19916;-76
2023/03/27 05:24:03;;;;;;;1.33;0.50;;;8.30;99.90;;;;;;5051166;28;20025;-76
2023/03/27 05:26:29;;;;;;;;;;;8.30;99.90;;;;;;5051215;28;20061;-76
2023/03/27 05:28:57;;;;;;;4.95;1.88;;;8.30;99.90;;;;;;5051242;28;19909;-76
2023/03/27 05:31:23;;;;;;;1.20;0.70;;;8.30;99.90;;;;;;5050652;28;20128;-77
2023/03/27 05:33:51;;;;;;;2.47;1.00;;;8.30;99.90;;;;;;5049387;28;20425;-77
2023/03/27 05:36:26;;;;;;;3.40;1.00;;;8.30;99.90;;;;;;5049491;28;20485;-77
2023/03/27 05:38:53;;;;;;;2.92;1.23;;;8.40;99.90;;;;;;5050798;28;20124;-75
2023/03/27 05:41:19;;;;;;;4.63;2.00;;;8.40;99.90;;;;;;5049298;28;20025;-77
2023/03/27 05:43:45;;;;;;;8.10;2.83;;;8.40;99.90;;;;;;5050772;28;20031;-77
2023/03/27 05:46:11;;;;;;;;;;;8.40;99.90;;;;;;5049830;28;20028;-75
2023/03/27 05:48:37;;;;;;;6.05;3.17;;;8.50;99.90;;;;;;5050529;28;19987;-77
2023/03/27 05:51:04;;;;;;;4.78;2.22;;;8.50;99.90;;;;;;5050482;28;20032;-76
2023/03/27 05:53:30;;;;;;;5.53;2.83;;;8.50;99.90;;;;;;5050223;28;20021;-76
2023/03/27 05:55:56;;;;;;;;;;;8.50;99.90;;;;;;5050699;28;20056;-76
2023/03/27 05:58:22;;;;;;;4.32;2.33;;;8.60;99.90;;;;;;5050338;28;19959;-76
2023/03/27 06:00:49;;;;;;;;;;;8.50;99.90;;;;;;5048814;28;20068;-77
2023/03/27 06:03:15;;;;;;;20.20;2.50;;;8.60;99.90;;;;;;5050181;28;19962;-76
2023/03/27 06:05:41;;;;;;;4.75;2.70;;;8.60;99.90;;;;;;5050331;28;20033;-76
2023/03/27 06:08:08;;;;;;;;;;;8.60;99.90;;;;;;5050710;28;20025;-76
2023/03/27 06:10:34;;;;;;;6.85;2.83;;;8.70;99.90;;;;;;5048868;28;20616;-76
2023/03/27 06:13:05;;;;;;;3.47;1.55;;;8.80;99.90;;;;;;5050412;28;20048;-77
2023/03/27 06:15:32;;;;;;;3.10;1.30;;;8.90;99.90;;;;;;5050121;28;20025;-76
2023/03/27 06:17:58;;;;;;;0.90;0.40;;;8.90;99.90;;;;;;5048684;28;20033;-76
2023/03/27 06:20:23;;;;;;;;;;;9.00;99.90;;;;;;5050629;28;20029;-76
2023/03/27 06:22:58;;;;;;;1.67;0.57;;;9.00;99.90;;;;;;5048908;28;20290;-76
2023/03/27 06:25:25;;;;;;;1.27;0.40;;;9.00;99.90;;;;;;5049796;28;20032;-77
2023/03/27 06:27:52;;;;;;;1.35;0.30;;;9.00;99.90;;;;;;5048713;28;20036;-76
2023/03/27 06:30:20;;;;;;;1.00;0.63;;;9.10;99.90;;;;;;5048643;28;20033;-76
2023/03/27 06:32:56;;;;;;;0.60;0.30;;;9.10;99.90;;;;;;5049947;28;20048;-76
2023/03/27 06:35:22;;;;;;;0.80;0.30;;;9.10;99.90;;;;;;5048279;28;20056;-77
2023/03/27 06:37:52;;;;;;;2.38;0.70;;;9.10;99.90;;;;;;5048428;28;20549;-76
2023/03/27 06:40:23;;;;;;;0.63;0.30;;;9.10;99.90;;;;;;5048516;28;20504;-76
2023/03/27 06:43:00;;;;;;;1.73;0.70;;;9.20;99.90;;;;;;5048383;28;20366;-76
2023/03/27 06:45:36;;;;;;;2.88;1.30;;;9.10;99.90;;;;;;5048082;28;20064;-76
2023/03/27 06:48:04;;;;;;;2.20;1.10;;;9.00;99.90;;;;;;5048285;28;20028;-76
2023/03/27 06:50:32;;;;;;;4.43;0.73;;;8.90;99.90;;;;;;5049463;28;20563;-77
2023/03/27 06:52:58;;;;;;;1.10;0.60;;;9.00;99.90;;;;;;5049517;28;20036;-76
2023/03/27 06:55:26;;;;;;;0.90;0.50;;;8.90;99.90;;;;;;5049199;28;20025;-77
2023/03/27 06:57:54;;;;;;;0.50;0.30;;;9.00;99.90;;;;;;5049360;28;20056;-76
2023/03/27 07:00:23;;;;;;;1.15;0.50;;;8.90;99.90;;;;;;5048026;28;20587;-76
2023/03/27 07:02:56;;;;;;;1.23;0.63;;;8.90;99.90;;;;;;5048953;28;20025;-77
2023/03/27 07:05:24;;;;;;;3.25;1.63;;;8.90;99.90;;;;;;5049027;28;20052;-76
2023/03/27 07:07:50;;;;;;;2.20;1.05;;;8.90;99.90;;;;;;5049320;28;20109;-77
2023/03/27 07:10:15;;;;;;;;;;;8.80;99.90;;;;;;5049106;28;20103;-77
2023/03/27 07:12:55;;;;;;;5.32;2.50;;;8.80;99.90;;;;;;5048678;28;19956;-76
2023/03/27 07:15:23;;;;;;;2.40;1.30;;;8.80;99.90;;;;;;5048687;28;20036;-76
2023/03/27 07:18:01;;;;;;;9.95;5.90;;;8.80;99.90;;;;;;5048940;28;20071;-76
2023/03/27 07:20:28;;;;;;;13.13;8.77;;;8.80;99.90;;;;;;5048730;28;20032;-77
2023/03/27 07:22:56;;;;;;;14.13;7.47;;;8.80;99.90;;;;;;5048703;28;20455;-76
2023/03/27 07:25:26;;;;;;;4.22;2.30;;;8.80;99.90;;;;;;5049015;28;20137;-76
2023/03/27 07:27:56;;;;;;;7.45;2.60;;;8.80;99.90;;;;;;5048627;28;20036;-77
2023/03/27 07:30:22;;;;;;;2.50;0.90;;;8.90;99.90;;;;;;5048269;28;20098;-76
2023/03/27 07:32:47;;;;;;;;;;;8.90;99.90;;;;;;5049045;28;20521;-76
2023/03/27 07:35:13;;;;;;;2.15;0.85;;;8.90;99.90;;;;;;5047251;28;19912;-76
2023/03/27 07:37:39;;;;;;;2.38;1.30;;;9.00;99.90;;;;;;5048720;28;20086;-77
2023/03/27 07:40:06;;;;;;;;;;;9.00;99.90;;;;;;5049346;28;20033;-76
2023/03/27 07:42:33;;;;;;;3.45;2.10;;;9.00;99.90;;;;;;5048510;28;20385;-75
2023/03/27 07:44:59;;;;;;;3.83;2.15;;;9.00;99.90;;;;;;5048395;28;20140;-76
2023/03/27 07:47:25;;;;;;;4.78;1.70;;;9.10;99.90;;;;;;5046796;28;20028;-76
2023/03/27 07:49:51;;;;;;;;;;;9.10;99.90;;;;;;5048846;28;20036;-78
2023/03/27 07:52:17;;;;;;;2.25;1.23;;;9.10;99.90;;;;;;5048442;28;19915;-77
2023/03/27 07:54:42;;;;;;;;;;;9.10;99.90;;;;;;5047455;28;20037;-78
2023/03/27 07:57:09;;;;;;;2.72;0.65;;;9.10;99.90;;;;;;5048294;28;19955;-78
2023/03/27 07:59:35;;;;;;;1.60;0.75;;;9.10;99.90;;;;;;5048233;28;20025;-78
2023/03/27 08:02:01;;;;;;;1.40;0.50;;;9.10;99.90;;;;;;5047164;28;20405;-77
2023/03/27 08:04:27;;;;;;;1.48;0.60;;;9.20;99.90;;;;;;5048362;28;20098;-77
2023/03/27 08:06:53;;;;;;;;;;;9.20;99.90;;;;;;5048833;28;20485;-79
2023/03/27 08:09:20;;;;;;;0.68;0.38;;;9.40;99.90;;;;;;5046739;28;20285;-78
2023/03/27 08:11:46;;;;;;;0.80;0.50;;;9.30;99.90;;;;;;5047974;28;20033;-77
2023/03/27 08:14:12;;;;;;;;;;;9.30;99.90;;;;;;5047506;28;20048;-78
2023/03/27 08:16:38;;;;;;;0.60;0.40;;;9.30;99.90;;;;;;5048254;28;19912;-77
2023/03/27 08:19:05;;;;;;;1.00;0.45;;;9.30;99.90;;;;;;5046773;28;20398;-78
2023/03/27 08:21:32;;;;;;;4.35;2.60;;;9.40;99.90;;;;;;5046787;28;20025;-78
2023/03/27 08:23:58;;;;;;;4.07;2.63;;;9.40;99.90;;;;;;5049341;28;20096;-78
2023/03/27 08:26:27;;;;;;;5.68;1.08;;;9.40;99.90;;;;;;5052198;28;20503;-77
2023/03/27 08:28:54;;;;;;;1.25;0.60;;;9.40;99.90;;;;;;5052355;28;20063;-77
2023/03/27 08:31:21;;;;;;;2.05;0.55;;;9.40;99.90;;;;;;5051945;28;20070;-78
2023/03/27 08:33:47;;;;;;;1.75;0.75;;;9.40;99.90;;;;;;5051834;28;20086;-78
2023/03/27 08:36:13;;;;;;;;;;;9.40;99.90;;;;;;5052450;28;20033;-77
2023/03/27 08:38:40;;;;;;;1.38;0.63;;;9.30;99.90;;;;;;5050492;28;19908;-77
2023/03/27 08:41:06;;;;;;;1.95;0.73;;;9.30;99.90;;;;;;5051969;28;20036;-77
2023/03/27 08:43:39;;;;;;;1.55;0.30;;;9.40;99.90;;;;;;5051884;28;20466;-78
2023/03/27 08:46:15;;;;;;;0.88;0.50;;;9.40;99.90;;;;;;5051920;28;20489;-77
2023/03/27 08:48:46;;;;;;;4.30;2.80;;;9.30;99.90;;;;;;5050241;28;20051;-77
2023/03/27 08:51:22;;;;;;;2.45;1.02;;;9.50;99.90;;;;;;5051833;28;20116;-77
2023/03/27 08:54:08;;;;;;;1.83;0.80;;;9.40;99.90;;;;;;5050587;28;20060;-78
2023/03/27 08:56:34;;;;;;;2.10;1.10;;;9.20;99.90;;;;;;5050575;28;20037;-77
2023/03/27 08:59:00;;;;;;;;;;;9.20;99.90;;;;;;5050526;28;20059;-77
2023/03/27 09:01:49;;;;;;;7.33;5.27;;;9.20;99.90;;;;;;5050266;28;19963;-77
2023/03/27 09:04:40;;;;;;;4.93;3.25;;;9.10;99.90;;;;;;5050988;28;20064;-78
2023/03/27 09:07:08;;;;;;;6.00;3.53;;;9.10;99.90;;;;;;5051674;28;20091;-77
2023/03/27 09:09:45;;;;;;;3.45;1.63;;;9.10;99.90;;;;;;5051531;28;20024;-78
2023/03/27 09:12:37;;;;;;;2.17;0.82;;;9.10;99.90;;;;;;5051485;28;20116;-78
2023/03/27 09:15:26;;;;;;;1.50;0.30;;;9.20;99.90;;;;;;5048782;28;20140;-78
2023/03/27 09:18:10;;;;;;;0.63;0.30;;;9.10;99.90;;;;;;5050723;28;20052;-78
2023/03/27 09:20:50;;;;;;;0.90;0.40;;;9.20;99.90;;;;;;5049079;28;20035;-77
2023/03/27 09:23:24;;;;;;;1.13;0.40;;;9.10;99.90;;;;;;5050022;28;20504;-77
2023/03/27 09:26:05;;;;;;;1.73;0.60;;;9.10;99.90;;;;;;5050049;28;20560;-76
2023/03/27 09:28:55;;;;;;;2.97;1.48;;;9.00;99.90;;;;;;5049878;28;20043;-76
2023/03/27 09:31:34;;;;;;;4.85;2.50;;;9.00;99.90;;;;;;5050373;28;20090;-77
2023/03/27 09:34:05;;;;;;;9.45;4.32;;;9.00;99.90;;;;;;5050529;28;20589;-77
2023/03/27 09:36:34;;;;;;;7.25;3.78;;;9.10;99.90;;;;;;5050187;28;20049;-77
2023/03/27 09:39:06;;;;;;;9.15;5.03;;;9.10;99.90;;;;;;5049119;28;20041;-77
2023/03/27 09:41:43;;;;;;;6.72;3.75;;;9.10;99.90;;;;;;5050811;28;20063;-78
2023/03/27 09:44:24;;;;;;;10.98;4.55;;;9.20;99.90;;;;;;5050921;28;20025;-77
2023/03/27 09:46:55;;;;;;;13.27;5.22;;;9.20;99.90;;;;;;5050323;28;20082;-76
2023/03/27 09:49:21;;;;;;;9.57;5.07;;;9.20;99.90;;;;;;5049209;28;20508;-77
2023/03/27 09:51:48;;;;;;;;;;;9.30;99.90;;;;;;5050970;28;20112;-76
2023/03/27 09:54:16;;;;;;;;;;;9.30;99.90;;;;;;5051203;28;19974;-76
2023/03/27 09:56:47;;;;;;;9.10;5.47;;;9.40;99.90;;;;;;5050495;28;19909;-76
2023/03/27 09:59:29;;;;;;;4.88;2.35;;;9.40;99.90;;;;;;5050365;28;20068;-76
2023/03/27 10:02:16;;;;;;;2.72;1.48;;;9.40;99.90;;;;;;5048849;28;20490;-77
2023/03/27 10:04:58;;;;;;;1.48;0.77;;;9.50;99.90;;;;;;5049554;28;20033;-77
2023/03/27 10:07:25;;;;;;;7.18;4.05;;;9.40;99.90;;;;;;5048985;28;20041;-77
2023/03/27 10:10:10;;;;;;;9.80;5.80;;;9.40;99.90;;;;;;5050668;28;20057;-76
2023/03/27 10:12:37;;;;;;;12.00;6.88;;;9.30;99.90;;;;;;5048597;28;20112;-76
2023/03/27 10:15:05;;;;;;;15.60;11.02;;;9.30;99.90;;;;;;5048639;28;20052;-76
2023/03/27 10:17:38;;;;;;;5.15;2.30;;;9.30;99.90;;;;;;5049749;28;20064;-77
2023/03/27 10:20:12;;;;;;;5.13;2.85;;;9.30;99.90;;;;;;5049981;28;20087;-77
2023/03/27 10:22:49;;;;;;;6.10;2.40;;;9.20;99.90;;;;;;5048875;28;20045;-76
2023/03/27 10:25:20;;;;;;;5.95;3.25;;;9.20;99.90;;;;;;5048662;28;20029;-77
2023/03/27 10:27:46;;;;;;;7.55;2.75;;;9.20;99.90;;;;;;5050107;28;20025;-76
2023/03/27 10:30:24;;;;;;;;;;;9.10;99.90;;;;;;5048962;28;20070;-76
2023/03/27 10:32:50;;;;;;;4.60;1.30;;;9.20;99.90;;;;;;5049941;28;19951;-77
2023/03/27 10:35:24;;;;;;;;;;;9.10;99.90;;;;;;5049953;28;20651;-77
2023/03/27 10:37:51;;;;;;;7.18;2.40;;;9.10;99.90;;;;;;5049573;28;19908;-76
2023/03/27 10:40:20;;;;;;;5.32;2.13;;;9.10;99.90;;;;;;5049691;28;20051;-77
2023/03/27 10:42:47;;;;;;;10.32;5.47;;;9.00;99.90;;;;;;5048389;28;20021;-77
2023/03/27 10:45:19;;;;;;;9.45;5.13;;;9.00;99.90;;;;;;5048285;28;20087;-77
2023/03/27 10:47:52;;;;;;;7.10;4.07;;;9.00;99.90;;;;;;5048596;28;20035;-77
2023/03/27 10:50:37;;;;;;;5.90;3.30;;;8.90;99.90;;;;;;5048269;28;20036;-78
2023/03/27 10:53:22;;;;;;;2.95;1.58;;;8.80;99.90;;;;;;5048196;28;20664;-77
2023/03/27 10:56:15;;;;;;;5.97;2.83;;;8.70;99.90;;;;;;5049619;28;20032;-77
2023/03/27 10:58:58;;;;;;;7.82;3.13;;;8.70;99.90;;;;;;5047890;28;20048;-77
2023/03/27 11:01:30;;;;;;;10.93;3.63;;;8.60;99.90;;;;;;5049260;28;20033;-77
2023/03/27 11:04:15;;;;;;;7.03;2.50;;;8.60;99.90;;;;;;5047921;28;20086;-76
2023/03/27 11:06:42;;;;;;;3.65;1.23;;;8.60;99.90;;;;;;5049038;28;20090;-78
2023/03/27 11:09:16;;;;;;;1.17;0.70;;;8.50;99.90;;;;;;5049255;28;20608;-77
2023/03/27 11:11:57;;;;;;;1.73;0.50;;;8.50;99.90;;;;;;5048852;28;20037;-76
2023/03/27 11:14:45;;;;;;;3.75;1.27;;;8.60;99.90;;;;;;5048223;28;20033;-76
2023/03/27 11:17:17;;;;;;;3.17;1.10;;;8.50;99.90;;;;;;5049479;28;20033;-76
2023/03/27 11:19:54;;;;;;;5.40;1.10;;;8.40;99.90;;;;;;5049409;28;20406;-76
2023/03/27 11:22:44;;;;;;;8.25;3.53;;;8.40;99.90;;;;;;5048211;28;20036;-76
2023/03/27 11:25:51;;;;;;;1.58;0.60;;;8.20;99.90;;;;;;5048517;28;20069;-77
2023/03/27 11:28:42;;;;;;;1.48;0.50;;;8.00;99.90;;;;;;5044311;28;20393;-77
2023/03/27 11:31:44;;;;;;;2.97;0.90;;;8.00;99.90;;;;;;5047410;28;20060;-77
2023/03/27 11:34:32;;;;;;;2.40;0.63;;;7.80;99.90;;;;;;5047322;28;20509;-77
2023/03/27 11:37:09;;;;;;;6.72;4.78;;;7.80;99.90;;;;;;5048645;28;20112;-77
2023/03/27 11:39:44;;;;;;;1.33;0.55;;;7.70;99.90;;;;;;5048322;28;20040;-76
2023/03/27 11:42:22;;;;;;;3.42;0.70;;;7.70;99.90;;;;;;5047366;28;20032;-76
2023/03/27 11:44:48;;;;;;;1.55;0.50;;;7.70;99.90;;;;;;5048613;28;20033;-76
2023/03/27 11:47:18;;;;;;;;;;;7.70;99.90;;;;;;5048807;28;20039;-75
2023/03/27 11:50:07;;;;;;;2.22;0.60;;;7.70;99.90;;;;;;5048531;28;20385;-75
2023/03/27 11:52:48;;;;;;;3.00;0.60;;;7.90;99.90;;;;;;5047187;28;20029;-75
2023/03/27 11:55:17;;;;;;;2.72;0.70;;;7.80;99.90;;;;;;5048302;28;20031;-76
2023/03/27 11:58:19;;;;;;;2.80;1.00;;;7.90;99.90;;;;;;5047948;28;20017;-76
2023/03/27 12:01:07;;;;;;;5.25;2.58;;;7.90;99.90;;;;;;5048423;28;20076;-76
2023/03/27 12:04:07;;;;;;;8.55;4.00;;;7.90;99.90;;;;;;5048097;28;20087;-76
2023/03/27 12:06:52;;;;;;;4.45;1.40;;;7.90;99.90;;;;;;5048129;28;20025;-75
2023/03/27 12:09:40;;;;;;;5.70;1.58;;;7.90;99.90;;;;;;5046763;28;20028;-75
2023/03/27 12:12:12;;;;;;;4.03;1.15;;;8.00;99.90;;;;;;5048359;28;20056;-75
2023/03/27 12:14:52;;;;;;;1.95;0.50;;;8.00;99.90;;;;;;5046737;28;20083;-76
2023/03/27 12:17:18;;;;;;;3.10;0.80;;;8.10;99.90;;;;;;5047048;28;20432;-76
2023/03/27 12:19:44;;;;;;;;;;;8.10;99.90;;;;;;5048761;28;20579;-75
2023/03/27 12:22:24;;;;;;;1.45;0.40;;;8.00;99.90;;;;;;5046754;28;20435;-76
2023/03/27 12:25:09;;;;;;;7.90;3.08;;;8.00;99.90;;;;;;5048414;28;20037;-75
2023/03/27 12:27:52;;;;;;;5.35;2.47;;;7.90;99.90;;;;;;5046833;28;20033;-76
2023/03/27 12:31:01;;;;;;;5.00;2.90;;;7.90;99.90;;;;;;5047015;28;20025;-75
2023/03/27 12:33:27;;;;;;;6.55;3.35;;;7.80;99.90;;;;;;5047972;28;20763;-77
2023/03/27 12:35:56;;;;;;;;;;;7.80;99.90;;;;;;5047230;28;20037;-77
2023/03/27 12:38:29;;;;;;;4.45;2.15;;;7.80;99.90;;;;;;5046686;28;20426;-77
2023/03/27 12:41:12;;;;;;;2.45;0.95;;;7.80;99.90;;;;;;5046722;28;20033;-77
2023/03/27 12:43:44;;;;;;;1.80;0.93;;;7.90;99.90;;;;;;5046319;28;20137;-77
2023/03/27 12:46:23;;;;;;;2.72;1.35;;;8.00;99.90;;;;;;5046498;28;20064;-76
2023/03/27 12:49:04;;;;;;;6.32;2.95;;;8.00;99.90;;;;;;5048190;28;20060;-76
2023/03/27 12:51:53;;;;;;;2.35;1.00;;;8.10;99.90;;;;;;5048357;28;20017;-78
2023/03/27 12:54:22;;;;;;;3.05;0.70;;;8.20;99.90;;;;;;5047994;28;20139;-77
2023/03/27 12:56:58;;;;;;;2.35;0.77;;;8.10;99.90;;;;;;5046603;28;20047;-76
2023/03/27 12:59:28;;;;;;;3.30;1.50;;;8.10;99.90;;;;;;5046355;28;20063;-79
2023/03/27 13:02:03;;;;;;;2.63;1.33;;;8.00;99.90;;;;;;5047662;28;20052;-79
2023/03/27 13:04:31;;;;;;;2.28;0.88;;;8.10;99.90;;;;;;5047821;28;20035;-76
2023/03/27 13:07:35;;;;;;;8.85;4.63;;;8.10;99.90;;;;;;5047704;28;20111;-76
2023/03/27 13:10:34;;;;;;;1.98;0.90;;;8.20;99.90;;;;;;5048742;28;20060;-77
2023/03/27 13:13:37;;;;;;;1.70;0.57;;;8.20;99.90;;;;;;5049847;28;20098;-78
2023/03/27 13:16:29;;;;;;;2.10;1.20;;;8.30;99.90;;;;;;5051437;28;20501;-79
2023/03/27 13:19:06;;;;;;;1.88;0.80;;;8.30;99.90;;;;;;5049839;28;20176;-78
2023/03/27 13:21:48;;;;;;;1.23;0.65;;;8.30;99.90;;;;;;5049659;28;20055;-79
2023/03/27 13:24:26;;;;;;;1.88;0.60;;;8.30;99.90;;;;;;5051038;28;20112;-79
2023/03/27 13:27:26;;;;;;;1.35;0.55;;;8.40;99.90;;;;;;5051257;28;20029;-79
2023/03/27 13:29:52;;;;;;;1.75;0.80;;;8.50;99.90;;;;;;5051522;28;20549;-79
2023/03/27 13:32:33;;;;;;;2.55;0.90;;;8.50;99.90;;;;;;5050074;28;20063;-77
2023/03/27 13:35:20;;;;;;;2.50;1.00;;;8.60;99.90;;;;;;5050826;28;20053;-79
2023/03/27 13:37:49;;;;;;;;;;;8.60;99.90;;;;;;5049877;28;20120;-79
2023/03/27 13:40:26;;;;;;;7.65;6.80;;;8.70;99.90;;;;;;5049596;28;20002;-78